MiSS Caroline — WDH3754 — position and weather

sailwx.info

Track history (hours):
 
Tides and Currents Weather Stations Pressure Air Temp Water Temp Dewpoint Dewpoint Depression Visibility Wind Speed Wind Dir Waves Ship Positions

MiSS Caroline

Owner: Central Boat Rentals, Inc, Berwick, LA. More information available from US FCC via Universal Licensing System and Coast Guard Vessel Documentation Center.

Last reported at 2018-Jun-18 19:49 UTC. Time now 2018-Jun-23 12:25 UTC.
Position N 32°01' W 091°05'.

Length 22 m; draft 2.7 m.

Type: Tug. MMSI: 367610550.

Date/timePositionNaut miles runAvg speedWind from/ knotsBaromVisibWave heightAir tempDewpointWater temp
2018-Jun-18 19:49N 32°01' W 091°05'6 9.3
2018-Jun-18 19:12N 32°06' W 091°06'2 8.9
2018-Jun-18 19:00N 32°08' W 091°06'5 9.4
2018-Jun-18 18:30N 32°08' W 091°00'510.5
2018-Jun-18 18:00N 32°13' W 090°59'5 9.8
2018-Jun-18 17:30N 32°17' W 090°56'3 6.7
2018-Jun-18 17:00N 32°21' W 090°56'4 8.1
2018-Jun-18 16:30N 32°23' W 091°00'4 8.0
2018-Jun-18 16:00N 32°26' W 091°03'5 9.8
2018-Jun-18 15:30N 32°29' W 091°07'5 9.5
2018-Jun-18 15:00N 32°34' W 091°06'510.0
2018-Jun-18 14:30N 32°38' W 091°09'6 5.1
2018-Jun-18 13:15N 32°45' W 091°09'  
2018-Jun-12 16:09N 32°40' W 091°08'1 3.6
2018-Jun-12 15:53N 32°40' W 091°08'2 4.9
2018-Jun-12 15:23N 32°37' W 091°09'1 2.7
2018-Jun-12 14:58N 32°36' W 091°09'0 0.0
2018-Jun-12 14:28N 32°36' W 091°09'0 0.0
2018-Jun-12 14:00N 32°36' W 091°09'0 0.0
2018-Jun-12 13:30N 32°36' W 091°09'0 0.1
2018-Jun-12 12:59N 32°36' W 091°09'0 0.8
2018-Jun-12 12:30N 32°36' W 091°08'3 5.0
2018-Jun-12 12:00N 32°34' W 091°06'2 4.5
2018-Jun-12 11:30N 32°32' W 091°06'3 5.3
2018-Jun-12 11:00N 32°29' W 091°07'2 4.4
2018-Jun-12 10:30N 32°27' W 091°06'2 4.6
2018-Jun-12 10:00N 32°26' W 091°03'2 4.6
2018-Jun-12 09:30N 32°26' W 091°01'2 3.8
2018-Jun-12 09:00N 32°24' W 090°59'2 4.1
2018-Jun-12 08:30N 32°22' W 091°00'2 3.8
2018-Jun-12 08:00N 32°21' W 090°58'2 4.5
2018-Jun-12 07:30N 32°21' W 090°56'2 4.0
2018-Jun-12 07:00N 32°19' W 090°54'2 3.6
2018-Jun-12 06:30N 32°18' W 090°56'0 0.1
2018-Jun-12 06:00N 32°18' W 090°56'0 0.2
2018-Jun-12 05:30N 32°18' W 090°56'1 1.2
2018-Jun-12 05:00N 32°17' W 090°56'2 3.4
2018-Jun-12 04:30N 32°16' W 090°58'2 4.2
2018-Jun-12 04:00N 32°14' W 090°59'3 5.2
2018-Jun-12 03:30N 32°12' W 090°59'2 4.5
2018-Jun-12 03:00N 32°10' W 091°00'2 4.5
2018-Jun-12 02:30N 32°07' W 091°01'2 3.9
2018-Jun-12 02:00N 32°08' W 091°03'2 4.5
2018-Jun-12 01:30N 32°08' W 091°06'5 3.5
2018-Jun-12 00:09N 32°04' W 091°04'1 4.5
2018-Jun-12 00:00N 32°03' W 091°04'3 5.7
2018-Jun-11 23:29N 32°00' W 091°05'5 4.5
2018-Jun-11 22:22N 31°58' W 091°11'  
2018-Jun-09 09:30N 29°51' W 091°56'3 5.4
2018-Jun-09 09:00N 29°50' W 091°59'2 4.6
2018-Jun-09 08:30N 29°49' W 092°01'2 3.5
2018-Jun-09 08:00N 29°49' W 092°03'3 5.4
2018-Jun-09 07:30N 29°48' W 092°06'3 5.3
2018-Jun-09 07:00N 29°47' W 092°09'2 3.5
2018-Jun-09 06:29N 29°47' W 092°11'1 2.9
2018-Jun-09 06:00N 29°47' W 092°12'1 1.4
2018-Jun-09 05:30N 29°47' W 092°13'1 1.9
2018-Jun-09 04:58N 29°48' W 092°14'0 0.0
2018-Jun-09 04:27N 29°48' W 092°14'0 0.0
2018-Jun-09 03:58N 29°48' W 092°14'0 0.7
2018-Jun-09 03:30N 29°48' W 092°15'0 0.0
2018-Jun-09 03:00N 29°48' W 092°15'0 0.0
2018-Jun-09 02:30N 29°48' W 092°15'0 0.0
2018-Jun-09 01:59N 29°48' W 092°15'0 0.0
2018-Jun-09 01:30N 29°48' W 092°15'0 0.0
2018-Jun-09 01:00N 29°48' W 092°15'0 0.0
2018-Jun-09 00:30N 29°48' W 092°15'0 0.1
2018-Jun-09 00:00N 29°48' W 092°15'0 0.1
2018-Jun-08 23:30N 29°48' W 092°15'0 0.7
2018-Jun-08 23:00N 29°48' W 092°15'1 2.1
2018-Jun-08 22:30N 29°49' W 092°16'2 4.3
2018-Jun-08 22:00N 29°50' W 092°18'2 4.5
2018-Jun-08 21:28N 29°51' W 092°21'2 4.0
2018-Jun-08 20:58N 29°52' W 092°22'  
Track history (hours):
 
Tides and Currents Weather Stations Pressure Air Temp Water Temp Dewpoint Dewpoint Depression Visibility Wind Speed Wind Dir Waves Ship Positions

MiSS Caroline

Owner: Central Boat Rentals, Inc, Berwick, LA. More information available from US FCC via Universal Licensing System and Coast Guard Vessel Documentation Center.

Last reported at 2018-Jun-18 19:49 UTC. Time now 2018-Jun-23 12:25 UTC.
Position N 32°01' W 091°05'.

Length 22 m; draft 2.7 m.

Type: Tug. MMSI: 367610550.

Date/timePositionNaut miles runAvg speedWind from/ knotsBaromVisibWave heightAir tempDewpointWater temp
2018-Jun-18 19:49N 32°01' W 091°05'6 9.3
2018-Jun-18 19:12N 32°06' W 091°06'2 8.9
2018-Jun-18 19:00N 32°08' W 091°06'5 9.4
2018-Jun-18 18:30N 32°08' W 091°00'510.5
2018-Jun-18 18:00N 32°13' W 090°59'5 9.8
2018-Jun-18 17:30N 32°17' W 090°56'3 6.7
2018-Jun-18 17:00N 32°21' W 090°56'4 8.1
2018-Jun-18 16:30N 32°23' W 091°00'4 8.0
2018-Jun-18 16:00N 32°26' W 091°03'5 9.8
2018-Jun-18 15:30N 32°29' W 091°07'5 9.5
2018-Jun-18 15:00N 32°34' W 091°06'510.0
2018-Jun-18 14:30N 32°38' W 091°09'6 5.1
2018-Jun-18 13:15N 32°45' W 091°09'  
2018-Jun-12 16:09N 32°40' W 091°08'1 3.6
2018-Jun-12 15:53N 32°40' W 091°08'2 4.9
2018-Jun-12 15:23N 32°37' W 091°09'1 2.7
2018-Jun-12 14:58N 32°36' W 091°09'0 0.0
2018-Jun-12 14:28N 32°36' W 091°09'0 0.0
2018-Jun-12 14:00N 32°36' W 091°09'0 0.0
2018-Jun-12 13:30N 32°36' W 091°09'0 0.1
2018-Jun-12 12:59N 32°36' W 091°09'0 0.8
2018-Jun-12 12:30N 32°36' W 091°08'3 5.0
2018-Jun-12 12:00N 32°34' W 091°06'2 4.5
2018-Jun-12 11:30N 32°32' W 091°06'3 5.3
2018-Jun-12 11:00N 32°29' W 091°07'2 4.4
2018-Jun-12 10:30N 32°27' W 091°06'2 4.6
2018-Jun-12 10:00N 32°26' W 091°03'2 4.6
2018-Jun-12 09:30N 32°26' W 091°01'2 3.8
2018-Jun-12 09:00N 32°24' W 090°59'2 4.1
2018-Jun-12 08:30N 32°22' W 091°00'2 3.8
2018-Jun-12 08:00N 32°21' W 090°58'2 4.5
2018-Jun-12 07:30N 32°21' W 090°56'2 4.0
2018-Jun-12 07:00N 32°19' W 090°54'2 3.6
2018-Jun-12 06:30N 32°18' W 090°56'0 0.1
2018-Jun-12 06:00N 32°18' W 090°56'0 0.2
2018-Jun-12 05:30N 32°18' W 090°56'1 1.2
2018-Jun-12 05:00N 32°17' W 090°56'2 3.4
2018-Jun-12 04:30N 32°16' W 090°58'2 4.2
2018-Jun-12 04:00N 32°14' W 090°59'3 5.2
2018-Jun-12 03:30N 32°12' W 090°59'2 4.5
2018-Jun-12 03:00N 32°10' W 091°00'2 4.5
2018-Jun-12 02:30N 32°07' W 091°01'2 3.9
2018-Jun-12 02:00N 32°08' W 091°03'2 4.5
2018-Jun-12 01:30N 32°08' W 091°06'5 3.5
2018-Jun-12 00:09N 32°04' W 091°04'1 4.5
2018-Jun-12 00:00N 32°03' W 091°04'3 5.7
2018-Jun-11 23:29N 32°00' W 091°05'5 4.5
2018-Jun-11 22:22N 31°58' W 091°11'  
2018-Jun-09 09:30N 29°51' W 091°56'3 5.4
2018-Jun-09 09:00N 29°50' W 091°59'2 4.6
2018-Jun-09 08:30N 29°49' W 092°01'2 3.5
2018-Jun-09 08:00N 29°49' W 092°03'3 5.4
2018-Jun-09 07:30N 29°48' W 092°06'3 5.3
2018-Jun-09 07:00N 29°47' W 092°09'2 3.5
2018-Jun-09 06:29N 29°47' W 092°11'1 2.9
2018-Jun-09 06:00N 29°47' W 092°12'1 1.4
2018-Jun-09 05:30N 29°47' W 092°13'1 1.9
2018-Jun-09 04:58N 29°48' W 092°14'0 0.0
2018-Jun-09 04:27N 29°48' W 092°14'0 0.0
2018-Jun-09 03:58N 29°48' W 092°14'0 0.7
2018-Jun-09 03:30N 29°48' W 092°15'0 0.0
2018-Jun-09 03:00N 29°48' W 092°15'0 0.0
2018-Jun-09 02:30N 29°48' W 092°15'0 0.0
2018-Jun-09 01:59N 29°48' W 092°15'0 0.0
2018-Jun-09 01:30N 29°48' W 092°15'0 0.0
2018-Jun-09 01:00N 29°48' W 092°15'0 0.0
2018-Jun-09 00:30N 29°48' W 092°15'0 0.1
2018-Jun-09 00:00N 29°48' W 092°15'0 0.1
2018-Jun-08 23:30N 29°48' W 092°15'0 0.7
2018-Jun-08 23:00N 29°48' W 092°15'1 2.1
2018-Jun-08 22:30N 29°49' W 092°16'2 4.3
2018-Jun-08 22:00N 29°50' W 092°18'2 4.5
2018-Jun-08 21:28N 29°51' W 092°21'2 4.0
2018-Jun-08 20:58N 29°52' W 092°22'  

Dump ship's entire track history